Time;durP1;ratioP1;P1;durP2;ratioP2;P2;SDS_P1;SDS_P2;PMS_P1;PMS_P2;Temp;Humidity;BMP_temperature;BMP_pressure;BME280_temperature;BME280_humidity;BME280_pressure;Samples;Min_cycle;Max_cycle;Signal;HPM_P1;HPM_P2
2023/10/03 00:00:24;;;;;;;1999.90;999.90;;;17.80;99.90;;;;;;4978712;28;20467;-72
2023/10/03 00:02:57;;;;;;;1999.90;999.90;;;17.80;99.90;;;;;;4961999;28;20125;-72
2023/10/03 00:05:34;;;;;;;1999.90;999.90;;;17.80;99.90;;;;;;4982084;28;20042;-71
2023/10/03 00:08:05;;;;;;;1999.90;999.90;;;17.80;99.90;;;;;;4984857;28;20049;-72
2023/10/03 00:10:33;;;;;;;1999.90;999.90;;;17.80;99.90;;;;;;4981039;28;20046;-71
2023/10/03 00:12:59;;;;;;;1999.90;999.90;;;17.80;99.90;;;;;;4984821;28;20474;-72
2023/10/03 00:15:25;;;;;;;1999.90;999.90;;;17.80;99.90;;;;;;4973475;28;20215;-71
2023/10/03 00:17:52;;;;;;;1999.90;999.90;;;17.80;99.90;;;;;;4984646;28;20118;-72
2023/10/03 00:20:18;;;;;;;1999.90;999.90;;;17.70;99.90;;;;;;4987989;28;20045;-72
2023/10/03 00:22:48;;;;;;;1999.90;999.90;;;17.70;99.90;;;;;;4978058;28;20046;-71
2023/10/03 00:25:18;;;;;;;1999.90;999.90;;;17.70;99.90;;;;;;4983685;28;20043;-71
2023/10/03 00:27:49;;;;;;;1999.90;999.90;;;17.70;99.90;;;;;;4976001;28;20039;-72
2023/10/03 00:30:15;;;;;;;1999.90;999.90;;;17.70;99.90;;;;;;4967718;28;20038;-72
2023/10/03 00:32:44;;;;;;;1999.90;999.90;;;17.60;99.90;;;;;;4985894;28;20050;-72
2023/10/03 00:35:11;;;;;;;1999.90;999.90;;;17.70;99.90;;;;;;4984147;28;20443;-72
2023/10/03 00:37:37;;;;;;;1999.90;999.90;;;17.70;99.90;;;;;;4991082;28;20038;-71
2023/10/03 00:42:48;;;;;;;;;;;17.60;99.90;;;;;;4986497;28;20100;-72
2023/10/03 00:45:21;;;;;;;1999.90;999.90;;;17.60;99.90;;;;;;5016018;28;19922;-72
2023/10/03 00:47:54;;;;;;;1999.90;999.90;;;17.60;99.90;;;;;;4976607;28;20053;-72
2023/10/03 00:50:25;;;;;;;1999.90;999.90;;;17.60;99.90;;;;;;4981386;28;20884;-72
2023/10/03 00:52:55;;;;;;;1999.90;999.90;;;17.60;99.90;;;;;;4981239;28;20031;-72
2023/10/03 00:55:29;;;;;;;1999.90;999.90;;;17.60;99.90;;;;;;4985474;28;20501;-72
2023/10/03 01:00:42;;;;;;;1999.90;999.90;;;17.60;99.90;;;;;;4982571;28;20049;-72
2023/10/03 01:03:37;;;;;;;1999.90;999.90;;;17.60;99.90;;;;;;4981945;28;20049;-72
2023/10/03 01:06:09;;;;;;;1999.90;999.90;;;17.60;99.90;;;;;;4977459;28;20136;-71
2023/10/03 01:08:43;;;;;;;1999.90;999.90;;;17.70;99.90;;;;;;4980698;28;20046;-72
2023/10/03 01:11:15;;;;;;;1999.90;999.90;;;17.60;99.90;;;;;;4987897;28;20399;-71
2023/10/03 01:13:46;;;;;;;1999.90;999.90;;;17.70;99.90;;;;;;4982804;28;20049;-71
2023/10/03 01:16:12;;;;;;;1999.90;999.90;;;17.60;99.90;;;;;;4978109;28;20043;-72
2023/10/03 01:18:41;;;;;;;1999.90;999.90;;;17.70;99.90;;;;;;4975382;28;20054;-71
2023/10/03 01:21:10;;;;;;;1999.90;999.90;;;17.70;99.90;;;;;;4980349;28;20055;-72
2023/10/03 01:23:37;;;;;;;1999.90;999.90;;;17.70;99.90;;;;;;4986180;28;20050;-71
2023/10/03 01:26:07;;;;;;;1999.90;999.90;;;17.60;99.90;;;;;;4984354;28;20047;-72
2023/10/03 01:28:32;;;;;;;1999.90;999.90;;;17.60;99.90;;;;;;4979534;28;20059;-71
2023/10/03 01:30:58;;;;;;;1999.90;999.90;;;17.60;99.90;;;;;;4980571;28;20049;-71
2023/10/03 01:33:28;;;;;;;1999.90;999.90;;;17.50;99.90;;;;;;4978841;28;20394;-71
2023/10/03 01:35:54;;;;;;;1999.90;999.90;;;17.50;99.90;;;;;;4975462;28;20144;-71
2023/10/03 01:38:20;;;;;;;1999.90;999.90;;;17.50;99.90;;;;;;4979352;28;20620;-71
2023/10/03 01:40:51;;;;;;;1999.90;999.90;;;17.50;99.90;;;;;;4981192;28;20066;-72
2023/10/03 01:43:16;;;;;;;1999.90;999.90;;;17.40;99.90;;;;;;4982485;28;20049;-71
2023/10/03 01:45:42;;;;;;;1999.90;999.90;;;17.40;99.90;;;;;;4985601;28;20046;-72
2023/10/03 01:48:10;;;;;;;1999.90;999.90;;;17.40;99.90;;;;;;5009689;28;20141;-71
2023/10/03 01:50:36;;;;;;;1999.90;999.90;;;17.40;99.90;;;;;;4989563;28;20054;-71
2023/10/03 01:53:02;;;;;;;1999.90;999.90;;;17.40;99.90;;;;;;5005559;28;20463;-71
2023/10/03 01:55:28;;;;;;;1999.90;999.90;;;17.40;99.90;;;;;;4980934;28;20053;-71
2023/10/03 01:57:54;;;;;;;1999.90;999.90;;;17.40;99.90;;;;;;4999887;28;20127;-71
2023/10/03 02:00:26;;;;;;;1999.90;999.90;;;17.30;99.90;;;;;;4983272;28;20096;-71
2023/10/03 02:03:07;;;;;;;1999.90;999.90;;;17.40;99.90;;;;;;4993295;28;20054;-71
2023/10/03 02:05:36;;;;;;;1999.90;999.90;;;17.40;99.90;;;;;;4992085;28;20054;-71
2023/10/03 02:08:21;;;;;;;1999.90;999.90;;;17.40;99.90;;;;;;4999082;28;20046;-72
2023/10/03 02:10:50;;;;;;;1999.90;999.90;;;17.30;99.90;;;;;;4975823;28;20422;-71
2023/10/03 02:13:21;;;;;;;1999.90;999.90;;;17.40;99.90;;;;;;4974441;28;20038;-71
2023/10/03 02:15:49;;;;;;;1999.90;999.90;;;17.40;99.90;;;;;;4975206;28;20073;-71
2023/10/03 02:18:19;;;;;;;1999.90;999.90;;;17.40;99.90;;;;;;4981781;28;20497;-71
2023/10/03 02:20:52;;;;;;;1999.90;999.90;;;17.40;99.90;;;;;;4973064;28;20054;-71
2023/10/03 02:23:19;;;;;;;1999.90;999.90;;;17.30;99.90;;;;;;4977617;28;20034;-71
2023/10/03 02:25:46;;;;;;;1999.90;999.90;;;17.40;99.90;;;;;;4979331;28;20095;-71
2023/10/03 02:28:16;;;;;;;1999.90;999.90;;;17.30;99.90;;;;;;4972059;28;20042;-71
2023/10/03 02:30:47;;;;;;;1999.90;999.90;;;17.40;99.90;;;;;;4979823;28;20085;-71
2023/10/03 02:33:13;;;;;;;1999.90;999.90;;;17.40;99.90;;;;;;4980080;28;20058;-71
2023/10/03 02:35:43;;;;;;;1999.90;999.90;;;17.40;99.90;;;;;;4990404;28;20048;-72
2023/10/03 02:38:11;;;;;;;1999.90;999.90;;;17.40;99.90;;;;;;4978937;28;20054;-71
2023/10/03 02:40:39;;;;;;;1999.90;999.90;;;17.50;99.90;;;;;;4987836;28;20068;-71
2023/10/03 02:43:05;;;;;;;1999.90;999.90;;;17.50;99.90;;;;;;4981515;28;20043;-71
2023/10/03 02:45:31;;;;;;;1999.90;999.90;;;17.50;99.90;;;;;;4975588;28;20048;-72
2023/10/03 02:47:58;;;;;;;1999.90;999.90;;;17.50;99.90;;;;;;4980506;28;20524;-71
2023/10/03 02:50:27;;;;;;;1999.90;999.90;;;17.60;99.90;;;;;;4975721;28;20043;-71
2023/10/03 02:52:55;;;;;;;1999.90;999.90;;;17.60;99.90;;;;;;4983527;28;20477;-71
2023/10/03 02:55:22;;;;;;;1999.90;999.90;;;17.60;99.90;;;;;;4976403;28;20051;-71
2023/10/03 02:57:48;;;;;;;1999.90;999.90;;;17.70;99.90;;;;;;4985413;28;20049;-71
2023/10/03 03:00:15;;;;;;;1999.90;999.90;;;17.70;99.90;;;;;;4982514;28;20069;-71
2023/10/03 03:02:47;;;;;;;1999.90;999.90;;;17.70;99.90;;;;;;4975682;28;20076;-71
2023/10/03 03:05:17;;;;;;;1999.90;999.90;;;17.70;99.90;;;;;;4973821;28;20061;-71
2023/10/03 03:07:48;;;;;;;1999.90;999.90;;;17.70;99.90;;;;;;4969049;28;20471;-71
2023/10/03 03:10:16;;;;;;;1999.90;999.90;;;17.70;99.90;;;;;;4974167;28;20050;-71
2023/10/03 03:12:43;;;;;;;1999.90;999.90;;;17.70;99.90;;;;;;4969440;28;20035;-71
2023/10/03 03:15:11;;;;;;;1999.90;999.90;;;17.70;99.90;;;;;;4975158;28;20045;-71
2023/10/03 03:17:39;;;;;;;1999.90;999.90;;;17.70;99.90;;;;;;4970316;28;20058;-71
2023/10/03 03:20:17;;;;;;;1999.90;999.90;;;17.70;99.90;;;;;;4974733;28;20046;-71
2023/10/03 03:22:47;;;;;;;1999.90;999.90;;;17.70;99.90;;;;;;4972952;28;20035;-71
2023/10/03 03:25:36;;;;;;;1999.90;999.90;;;17.70;99.90;;;;;;4973462;28;20046;-71
2023/10/03 03:28:02;;;;;;;1999.90;999.90;;;17.70;99.90;;;;;;4970775;28;20791;-71
2023/10/03 03:32:54;;;;;;;1999.90;999.90;;;17.80;99.90;;;;;;4982002;28;20600;-71
2023/10/03 03:35:24;;;;;;;1999.90;999.90;;;17.90;99.90;;;;;;4982592;28;20039;-71
2023/10/03 03:37:55;;;;;;;1999.90;999.90;;;17.90;99.90;;;;;;4988037;28;20042;-71
2023/10/03 03:40:31;;;;;;;1999.90;999.90;;;17.90;99.90;;;;;;4978117;28;20039;-71
2023/10/03 03:42:58;;;;;;;1999.90;999.90;;;18.00;99.90;;;;;;4980410;28;20058;-71
2023/10/03 03:45:26;;;;;;;1999.90;999.90;;;18.10;99.90;;;;;;4969409;28;20054;-71
2023/10/03 03:47:52;;;;;;;1999.90;999.90;;;18.10;99.90;;;;;;4971207;28;20055;-71
2023/10/03 03:50:18;;;;;;;1999.90;999.90;;;18.20;99.90;;;;;;4987730;28;20043;-71
2023/10/03 03:52:44;;;;;;;1999.90;999.90;;;18.20;99.90;;;;;;4973498;28;20051;-71
2023/10/03 03:55:11;;;;;;;1999.90;999.90;;;18.30;99.90;;;;;;4956571;28;20043;-71
2023/10/03 03:57:37;;;;;;;1999.90;999.90;;;18.30;99.90;;;;;;4988319;28;20042;-71
2023/10/03 04:00:12;;;;;;;1999.90;999.90;;;18.40;99.90;;;;;;4973892;28;20092;-71
2023/10/03 04:02:38;;;;;;;1999.90;999.90;;;18.40;99.90;;;;;;4974682;28;20511;-71
2023/10/03 04:05:07;;;;;;;1999.90;999.90;;;18.40;99.90;;;;;;4977925;28;20042;-71
2023/10/03 04:07:34;;;;;;;1999.90;999.90;;;18.40;99.90;;;;;;4974069;28;20049;-71
2023/10/03 04:10:00;;;;;;;1999.90;999.90;;;18.40;99.90;;;;;;4974116;28;20046;-71
2023/10/03 04:12:26;;;;;;;1999.90;999.90;;;18.40;99.90;;;;;;4973354;28;20057;-71
2023/10/03 04:14:52;;;;;;;1999.90;999.90;;;18.40;99.90;;;;;;4977087;28;20051;-71
2023/10/03 04:17:18;;;;;;;1999.90;999.90;;;18.30;99.90;;;;;;4978895;28;20034;-71
2023/10/03 04:19:45;;;;;;;1999.90;999.90;;;18.30;99.90;;;;;;4970129;28;20452;-71
2023/10/03 04:22:11;;;;;;;1999.90;999.90;;;18.30;99.90;;;;;;4969577;28;20039;-71
2023/10/03 04:24:37;;;;;;;1999.90;999.90;;;18.20;99.90;;;;;;4970085;28;20490;-71
2023/10/03 04:27:03;;;;;;;1999.90;999.90;;;18.30;99.90;;;;;;4975630;28;20129;-71
2023/10/03 04:29:30;;;;;;;1999.90;999.90;;;18.30;99.90;;;;;;4976053;28;20483;-71
2023/10/03 04:31:56;;;;;;;1999.90;999.90;;;18.20;99.90;;;;;;4978017;28;20030;-71
2023/10/03 04:34:21;;;;;;;1999.90;999.90;;;18.20;99.90;;;;;;4986436;28;20046;-71
2023/10/03 04:36:50;;;;;;;1999.90;999.90;;;18.20;99.90;;;;;;5020588;27;20054;-73
2023/10/03 04:39:16;;;;;;;1999.90;999.90;;;18.30;99.90;;;;;;4985899;28;20547;-73
2023/10/03 04:41:45;;;;;;;1999.90;999.90;;;18.30;99.90;;;;;;4983959;28;20515;-71
2023/10/03 04:44:15;;;;;;;1999.90;999.90;;;18.40;99.90;;;;;;4978888;28;20046;-71
2023/10/03 04:46:40;;;;;;;1999.90;999.90;;;18.40;99.90;;;;;;4978717;28;20057;-71
2023/10/03 04:49:07;;;;;;;1999.90;999.90;;;18.50;99.90;;;;;;4978804;28;20038;-71
2023/10/03 04:51:33;;;;;;;1999.90;999.90;;;18.50;99.90;;;;;;4970352;28;20050;-71
2023/10/03 04:53:58;;;;;;;1999.90;999.90;;;18.60;99.90;;;;;;4970388;28;20042;-71
2023/10/03 04:56:24;;;;;;;1999.90;999.90;;;18.70;99.90;;;;;;4976638;28;20050;-71
2023/10/03 04:58:50;;;;;;;1999.90;999.90;;;18.70;99.90;;;;;;5041600;28;20059;-71
2023/10/03 05:01:15;;;;;;;1999.90;999.90;;;18.90;99.90;;;;;;4971740;28;20038;-71
2023/10/03 05:03:41;;;;;;;1999.90;999.90;;;18.90;99.90;;;;;;4975402;28;20046;-71
2023/10/03 05:06:09;;;;;;;1999.90;999.90;;;19.00;99.90;;;;;;4971891;28;20034;-71
2023/10/03 05:08:37;;;;;;;1999.90;999.90;;;19.00;99.90;;;;;;4974258;28;20125;-70
2023/10/03 05:11:05;;;;;;;1999.90;999.90;;;19.10;99.90;;;;;;4981201;28;20607;-71
2023/10/03 05:13:31;;;;;;;1999.90;999.90;;;19.10;99.90;;;;;;4975365;28;20066;-71
2023/10/03 05:15:57;;;;;;;1999.90;999.90;;;19.20;99.90;;;;;;4983028;28;20609;-71
2023/10/03 05:18:23;;;;;;;1999.90;999.90;;;19.30;99.90;;;;;;4973979;28;20121;-71
2023/10/03 05:20:49;;;;;;;1999.90;999.90;;;19.30;99.90;;;;;;4976140;28;20188;-71
2023/10/03 05:23:15;;;;;;;1999.90;999.90;;;19.40;99.90;;;;;;4979171;28;20498;-72
2023/10/03 05:25:43;;;;;;;1999.90;999.90;;;19.40;99.90;;;;;;4977603;28;20048;-71
2023/10/03 05:28:12;;;;;;;1999.90;999.90;;;19.40;99.90;;;;;;4961746;28;20035;-72
2023/10/03 05:30:38;;;;;;;1999.90;999.90;;;19.50;99.90;;;;;;4987169;28;20111;-72
2023/10/03 05:33:08;;;;;;;1999.90;999.90;;;19.50;99.90;;;;;;5002083;28;20050;-72
2023/10/03 05:35:33;;;;;;;1999.90;999.90;;;19.50;99.90;;;;;;4984993;28;20059;-71
2023/10/03 05:37:59;;;;;;;1999.90;999.90;;;19.40;99.90;;;;;;4982073;28;20585;-73
2023/10/03 05:40:25;;;;;;;1999.90;999.90;;;19.40;99.90;;;;;;5001321;28;20505;-71
2023/10/03 05:42:50;;;;;;;1999.90;999.90;;;19.40;99.90;;;;;;4970436;28;20483;-71
2023/10/03 05:45:17;;;;;;;1999.90;999.90;;;19.40;99.90;;;;;;4985338;28;20061;-71
2023/10/03 05:47:45;;;;;;;1999.90;999.90;;;19.40;99.90;;;;;;4976123;28;20050;-72
2023/10/03 05:50:11;;;;;;;1999.90;999.90;;;19.40;99.90;;;;;;4975824;28;20406;-72
2023/10/03 05:52:37;;;;;;;1999.90;999.90;;;19.40;99.90;;;;;;4975407;28;20042;-71
2023/10/03 05:55:03;;;;;;;1999.90;999.90;;;19.30;99.90;;;;;;4973757;28;20039;-71
2023/10/03 05:57:29;;;;;;;1999.90;999.90;;;19.40;99.90;;;;;;4993686;28;20043;-71
2023/10/03 05:59:54;;;;;;;1999.90;999.90;;;19.30;99.90;;;;;;4975384;28;20054;-71
2023/10/03 06:02:21;;;;;;;1999.90;999.90;;;19.40;99.90;;;;;;4985516;28;20084;-72
2023/10/03 06:04:47;;;;;;;1999.90;999.90;;;19.40;99.90;;;;;;4986607;28;20379;-71
2023/10/03 06:07:13;;;;;;;1999.90;999.90;;;19.40;99.90;;;;;;4976091;28;20179;-72
2023/10/03 06:09:39;;;;;;;1999.90;999.90;;;19.40;99.90;;;;;;4966326;28;20042;-71
2023/10/03 06:12:04;;;;;;;1999.90;999.90;;;19.40;99.90;;;;;;4983151;28;20047;-71
2023/10/03 06:14:30;;;;;;;1999.90;999.90;;;19.40;99.90;;;;;;4978025;28;20070;-71
2023/10/03 06:16:56;;;;;;;1999.90;999.90;;;19.40;99.90;;;;;;4982910;28;20047;-71
2023/10/03 06:19:21;;;;;;;1999.90;999.90;;;19.40;99.90;;;;;;4973252;28;20046;-72
2023/10/03 06:21:47;;;;;;;1999.90;999.90;;;19.30;99.90;;;;;;4974922;28;20040;-72
2023/10/03 06:24:14;;;;;;;1999.90;999.90;;;19.30;99.90;;;;;;4988308;28;20406;-72
2023/10/03 06:26:44;;;;;;;1999.90;999.90;;;19.20;99.90;;;;;;4983457;28;20053;-71
2023/10/03 06:29:10;;;;;;;1999.90;999.90;;;19.10;99.90;;;;;;5009295;28;20032;-71
2023/10/03 06:31:36;;;;;;;1999.90;999.90;;;19.00;99.90;;;;;;4994194;28;20069;-72
2023/10/03 06:34:02;;;;;;;1999.90;999.90;;;18.90;99.90;;;;;;4989692;28;20038;-73
2023/10/03 06:36:28;;;;;;;1999.90;999.90;;;18.80;99.90;;;;;;5013583;27;20042;-72
2023/10/03 06:38:54;;;;;;;1999.90;999.90;;;18.70;99.90;;;;;;4993638;28;20380;-73
2023/10/03 06:41:20;;;;;;;1999.90;999.90;;;18.70;99.90;;;;;;4977851;28;20070;-72
2023/10/03 06:43:45;;;;;;;1999.90;999.90;;;18.60;99.90;;;;;;4978276;28;20118;-72
2023/10/03 06:46:11;;;;;;;1999.90;999.90;;;18.50;99.90;;;;;;4994791;28;20630;-71
2023/10/03 06:48:37;;;;;;;1999.90;999.90;;;18.50;99.90;;;;;;5014875;28;20081;-72
2023/10/03 06:51:04;;;;;;;1999.90;999.90;;;18.50;99.90;;;;;;5025539;27;20121;-71
2023/10/03 06:53:31;;;;;;;1999.90;999.90;;;18.50;99.90;;;;;;4979732;28;20204;-71
2023/10/03 06:55:57;;;;;;;1999.90;999.90;;;18.40;99.90;;;;;;4979646;28;20054;-72
2023/10/03 06:58:22;;;;;;;1999.90;999.90;;;18.30;99.90;;;;;;4973350;28;20521;-72
2023/10/03 07:00:53;;;;;;;1999.90;999.90;;;18.20;99.90;;;;;;4966806;28;20105;-71
2023/10/03 07:03:20;;;;;;;1999.90;999.90;;;18.20;99.90;;;;;;4979142;28;20041;-71
2023/10/03 07:05:46;;;;;;;1999.90;999.90;;;18.10;99.90;;;;;;4971795;28;20383;-71
2023/10/03 07:08:12;;;;;;;1999.90;999.90;;;18.10;99.90;;;;;;4973893;28;20095;-71
2023/10/03 07:10:41;;;;;;;1999.90;999.90;;;18.10;99.90;;;;;;4980076;28;20087;-72
2023/10/03 07:13:07;;;;;;;1999.90;999.90;;;18.10;99.90;;;;;;4977572;28;20107;-71
2023/10/03 07:15:33;;;;;;;1999.90;999.90;;;18.10;99.90;;;;;;4967034;28;20058;-72
2023/10/03 07:17:59;;;;;;;1999.90;999.90;;;18.10;99.90;;;;;;4978390;28;20054;-70
2023/10/03 07:20:25;;;;;;;1999.90;999.90;;;18.00;99.90;;;;;;4967937;28;20495;-71
2023/10/03 07:22:50;;;;;;;1999.90;999.90;;;18.00;99.90;;;;;;4969586;28;20502;-72
2023/10/03 07:25:16;;;;;;;1999.90;999.90;;;18.00;99.90;;;;;;4972708;28;20039;-74
2023/10/03 07:27:42;;;;;;;1999.90;999.90;;;18.00;99.90;;;;;;4970852;28;20046;-71
2023/10/03 07:30:09;;;;;;;1999.90;999.90;;;17.90;99.90;;;;;;4981305;28;20548;-71
2023/10/03 07:32:35;;;;;;;1999.90;999.90;;;17.90;99.90;;;;;;4983085;28;20447;-71
2023/10/03 07:35:00;;;;;;;1999.90;999.90;;;17.90;99.90;;;;;;4980255;28;20049;-72
2023/10/03 07:37:26;;;;;;;1999.90;999.90;;;17.90;99.90;;;;;;5008532;28;20543;-70
2023/10/03 07:39:52;;;;;;;1999.90;999.90;;;17.80;99.90;;;;;;5008667;28;20380;-71
2023/10/03 07:42:19;;;;;;;1999.90;999.90;;;17.70;99.90;;;;;;4984109;28;20088;-71
2023/10/03 07:44:44;;;;;;;1999.90;999.90;;;17.70;99.90;;;;;;4978342;28;20184;-71
2023/10/03 07:47:12;;;;;;;1999.90;999.90;;;17.70;99.90;;;;;;4973918;28;20109;-72
2023/10/03 07:49:41;;;;;;;1999.90;999.90;;;17.60;99.90;;;;;;4976080;28;20038;-71
2023/10/03 07:52:06;;;;;;;1999.90;999.90;;;17.60;99.90;;;;;;4970354;28;20054;-71
2023/10/03 07:54:33;;;;;;;1999.90;999.90;;;17.60;99.90;;;;;;4976046;28;20041;-71
2023/10/03 07:57:05;;;;;;;1999.90;999.90;;;17.50;99.90;;;;;;4984451;28;20095;-71
2023/10/03 07:59:31;;;;;;;1999.90;999.90;;;17.50;99.90;;;;;;4978847;28;20031;-73
2023/10/03 08:02:04;;;;;;;1999.90;999.90;;;17.50;99.90;;;;;;4971861;28;20482;-72
2023/10/03 08:04:31;;;;;;;1999.90;999.90;;;17.50;99.90;;;;;;4992327;28;20046;-71
2023/10/03 08:06:57;;;;;;;1999.90;999.90;;;17.40;99.90;;;;;;4995939;28;20391;-71
2023/10/03 08:09:24;;;;;;;1999.90;999.90;;;17.40;99.90;;;;;;4967635;28;20117;-72
2023/10/03 08:11:52;;;;;;;1999.90;999.90;;;17.30;99.90;;;;;;4985836;28;20053;-72
2023/10/03 08:14:18;;;;;;;1999.90;999.90;;;17.20;99.90;;;;;;4983296;28;20046;-72
2023/10/03 08:16:45;;;;;;;1999.90;999.90;;;17.10;99.90;;;;;;4990178;28;20046;-72
2023/10/03 08:19:21;;;;;;;1999.90;999.90;;;17.00;99.90;;;;;;4984408;28;20042;-72
2023/10/03 08:21:52;;;;;;;1999.90;999.90;;;16.90;99.90;;;;;;5006182;28;20081;-72
2023/10/03 08:24:24;;;;;;;1999.90;999.90;;;16.90;99.90;;;;;;4988544;28;20053;-72
2023/10/03 08:26:58;;;;;;;1999.90;999.90;;;16.90;99.90;;;;;;4976873;28;20531;-72
2023/10/03 08:29:24;;;;;;;1999.90;999.90;;;16.90;99.90;;;;;;4977840;28;20034;-72
2023/10/03 08:31:58;;;;;;;1999.90;999.90;;;16.90;99.90;;;;;;4984223;28;20049;-72
2023/10/03 08:34:24;;;;;;;1999.90;999.90;;;17.00;99.90;;;;;;4985669;28;20410;-72
2023/10/03 08:36:58;;;;;;;1999.90;999.90;;;17.00;99.90;;;;;;4980556;28;20039;-72
2023/10/03 08:39:29;;;;;;;1999.90;999.90;;;17.00;99.90;;;;;;4983617;28;20078;-72
2023/10/03 08:42:12;;;;;;;1999.90;999.90;;;17.00;99.90;;;;;;4984729;28;20066;-72
2023/10/03 08:44:42;;;;;;;1999.90;999.90;;;17.00;99.90;;;;;;4980880;28;20125;-72
2023/10/03 08:47:11;;;;;;;1999.90;999.90;;;17.10;99.90;;;;;;4981411;28;20050;-72
2023/10/03 08:49:39;;;;;;;1999.90;999.90;;;17.10;99.90;;;;;;4966932;28;20050;-72
2023/10/03 08:52:09;;;;;;;1999.90;999.90;;;17.10;99.90;;;;;;4975704;28;20038;-72
2023/10/03 08:54:37;;;;;;;1999.90;999.90;;;17.10;99.90;;;;;;4961283;28;20493;-72
2023/10/03 08:57:04;;;;;;;1999.90;999.90;;;17.00;99.90;;;;;;5046738;27;20146;-71
2023/10/03 08:59:33;;;;;;;1999.90;999.90;;;16.90;99.90;;;;;;4975255;28;20053;-72
2023/10/03 09:02:08;;;;;;;1999.90;999.90;;;16.60;99.90;;;;;;4996656;28;20112;-72
2023/10/03 09:04:38;;;;;;;1999.90;999.90;;;16.40;99.90;;;;;;4989235;28;20052;-72
2023/10/03 09:07:08;;;;;;;1999.90;999.90;;;16.30;99.90;;;;;;4986782;28;20505;-72
2023/10/03 09:09:35;;;;;;;1999.90;999.90;;;16.20;99.90;;;;;;5012390;28;20445;-72
2023/10/03 09:12:03;;;;;;;1999.90;999.90;;;16.10;99.90;;;;;;4995821;28;20149;-72
2023/10/03 09:14:28;;;;;;;1999.90;999.90;;;16.00;99.90;;;;;;4987296;28;20049;-72
2023/10/03 09:16:59;;;;;;;1999.90;999.90;;;16.00;99.90;;;;;;5021523;27;20038;-71
2023/10/03 09:19:45;;;;;;;1999.90;999.90;;;15.90;99.90;;;;;;5000620;28;20043;-71
2023/10/03 09:22:15;;;;;;;1999.90;999.90;;;15.90;99.90;;;;;;4978124;28;20050;-72
2023/10/03 09:24:44;;;;;;;1999.90;999.90;;;15.80;99.90;;;;;;4981429;28;20192;-72
2023/10/03 09:27:20;;;;;;;1999.90;999.90;;;15.70;99.90;;;;;;4991111;28;20046;-71
2023/10/03 09:29:49;;;;;;;1999.90;999.90;;;15.60;99.90;;;;;;4974231;28;20046;-71
2023/10/03 09:32:20;;;;;;;1999.90;999.90;;;15.50;99.90;;;;;;4999945;28;20046;-71
2023/10/03 09:34:56;;;;;;;1999.90;999.90;;;15.50;99.90;;;;;;4982155;28;20051;-71
2023/10/03 09:37:28;;;;;;;1999.90;999.90;;;15.50;99.90;;;;;;4971570;28;20078;-71
2023/10/03 09:40:01;;;;;;;1999.90;999.90;;;15.50;99.90;;;;;;4982539;28;20503;-71
2023/10/03 09:42:31;;;;;;;1999.90;999.90;;;15.50;99.90;;;;;;4978201;28;20055;-72
2023/10/03 09:44:57;;;;;;;1999.90;999.90;;;15.50;99.90;;;;;;4999023;28;20182;-72
2023/10/03 09:47:30;;;;;;;1999.90;999.90;;;15.60;99.90;;;;;;4983298;28;20039;-71
2023/10/03 09:50:06;;;;;;;1999.90;999.90;;;15.70;99.90;;;;;;4974054;28;20403;-72
2023/10/03 09:52:32;;;;;;;1999.90;999.90;;;15.70;99.90;;;;;;4985800;28;20044;-71
2023/10/03 09:55:00;;;;;;;1999.90;999.90;;;15.80;99.90;;;;;;4987800;28;20081;-72
2023/10/03 09:57:29;;;;;;;1999.90;999.90;;;15.80;99.90;;;;;;5000494;28;20069;-71
2023/10/03 09:59:56;;;;;;;1999.90;999.90;;;15.70;99.90;;;;;;4979833;28;20114;-72
2023/10/03 10:02:31;;;;;;;1999.90;999.90;;;15.70;99.90;;;;;;4985630;28;20039;-72
2023/10/03 10:05:19;;;;;;;1999.90;999.90;;;15.60;99.90;;;;;;4969488;28;20046;-71
2023/10/03 10:08:19;;;;;;;1999.90;999.90;;;15.60;99.90;;;;;;4980019;28;20465;-71
2023/10/03 10:11:07;;;;;;;1999.90;999.90;;;15.70;99.90;;;;;;4975748;28;20053;-71
2023/10/03 10:13:36;;;;;;;1999.90;999.90;;;15.70;99.90;;;;;;4991799;28;20057;-72
2023/10/03 10:16:07;;;;;;;1999.90;999.90;;;15.80;99.90;;;;;;4984081;28;20399;-72
2023/10/03 10:18:57;;;;;;;1999.90;999.90;;;15.80;99.90;;;;;;5011981;28;20059;-71
2023/10/03 10:21:25;;;;;;;1999.90;999.90;;;15.90;99.90;;;;;;4979117;28;20059;-71
2023/10/03 10:24:15;;;;;;;1999.90;999.90;;;15.90;99.90;;;;;;5003588;28;20046;-72
2023/10/03 10:26:49;;;;;;;1999.90;999.90;;;15.90;99.90;;;;;;4978335;28;20043;-73
2023/10/03 10:29:19;;;;;;;1999.90;999.90;;;15.90;99.90;;;;;;5012723;28;20053;-72
2023/10/03 10:31:49;;;;;;;1999.90;999.90;;;16.00;99.90;;;;;;4998745;28;20081;-72
2023/10/03 10:34:21;;;;;;;1999.90;999.90;;;16.00;99.90;;;;;;4974103;28;20042;-72
2023/10/03 10:37:15;;;;;;;1999.90;999.90;;;16.10;99.90;;;;;;4977926;28;20034;-72
2023/10/03 10:39:56;;;;;;;1999.90;999.90;;;16.20;99.90;;;;;;4970126;28;20097;-71
2023/10/03 10:42:25;;;;;;;1999.90;999.90;;;16.20;99.90;;;;;;5001853;28;20060;-72
2023/10/03 10:45:03;;;;;;;1999.90;999.90;;;16.20;99.90;;;;;;4980251;28;20081;-72
2023/10/03 10:47:33;;;;;;;1999.90;999.90;;;16.10;99.90;;;;;;4989296;28;20052;-72
2023/10/03 10:50:00;;;;;;;1999.90;999.90;;;16.10;99.90;;;;;;4957604;28;20050;-72
2023/10/03 10:52:29;;;;;;;1999.90;999.90;;;16.10;99.90;;;;;;4975914;28;20417;-72
2023/10/03 10:54:56;;;;;;;1999.90;999.90;;;16.00;99.90;;;;;;4980435;28;20049;-72
2023/10/03 10:57:25;;;;;;;1999.90;999.90;;;16.00;99.90;;;;;;4975763;28;20046;-72
2023/10/03 10:59:52;;;;;;;1999.90;999.90;;;15.90;99.90;;;;;;4966567;28;20042;-72
2023/10/03 11:02:18;;;;;;;1999.90;999.90;;;15.80;99.90;;;;;;4966286;28;20553;-71
2023/10/03 11:04:52;;;;;;;1999.90;999.90;;;15.80;99.90;;;;;;4974320;28;20053;-72
2023/10/03 11:07:26;;;;;;;1999.90;999.90;;;15.70;99.90;;;;;;4976762;28;20140;-72
2023/10/03 11:09:54;;;;;;;1999.90;999.90;;;15.60;99.90;;;;;;4973342;28;20509;-72
2023/10/03 11:12:26;;;;;;;1999.90;999.90;;;15.60;99.90;;;;;;4999562;28;20050;-72
2023/10/03 11:14:56;;;;;;;1999.90;999.90;;;15.60;99.90;;;;;;4974562;28;20758;-72
2023/10/03 11:17:23;;;;;;;1999.90;999.90;;;15.50;99.90;;;;;;4968719;28;20051;-72
2023/10/03 11:19:50;;;;;;;1999.90;999.90;;;15.50;99.90;;;;;;4989622;28;20130;-72
2023/10/03 11:22:17;;;;;;;1999.90;999.90;;;15.50;99.90;;;;;;4985880;28;20114;-72
2023/10/03 11:24:44;;;;;;;1999.90;999.90;;;15.50;99.90;;;;;;4973892;28;20038;-72
2023/10/03 11:27:21;;;;;;;1999.90;999.90;;;15.40;99.90;;;;;;4974790;28;20451;-73
2023/10/03 11:29:48;;;;;;;1999.90;999.90;;;15.40;99.90;;;;;;4960103;28;20079;-72
2023/10/03 11:32:22;;;;;;;1999.90;999.90;;;15.60;99.90;;;;;;4976826;28;20047;-72
2023/10/03 11:34:49;;;;;;;1999.90;999.90;;;15.60;99.90;;;;;;5025495;28;20052;-72
2023/10/03 11:37:39;;;;;;;1999.90;999.90;;;15.50;99.90;;;;;;5011158;28;20556;-72
2023/10/03 11:40:07;;;;;;;1999.90;999.90;;;15.40;99.90;;;;;;4973187;28;20066;-72
2023/10/03 11:42:33;;;;;;;1999.90;999.90;;;15.30;99.90;;;;;;4973913;28;20067;-72
2023/10/03 11:45:00;;;;;;;1999.90;999.90;;;15.20;99.90;;;;;;4984922;28;20923;-73
2023/10/03 11:47:26;;;;;;;1999.90;999.90;;;15.20;99.90;;;;;;4984525;28;20057;-72
2023/10/03 11:49:52;;;;;;;1999.90;999.90;;;15.10;99.90;;;;;;4976508;28;20046;-72
2023/10/03 11:52:18;;;;;;;1999.90;999.90;;;15.10;99.90;;;;;;4976377;28;20811;-72
2023/10/03 11:54:45;;;;;;;1999.90;999.90;;;15.10;99.90;;;;;;4980078;28;20588;-72
2023/10/03 11:57:12;;;;;;;1999.90;999.90;;;15.10;99.90;;;;;;4982939;28;20042;-72
2023/10/03 11:59:40;;;;;;;1999.90;999.90;;;15.00;99.90;;;;;;4995598;28;20088;-72
2023/10/03 12:02:06;;;;;;;1999.90;999.90;;;15.00;99.90;;;;;;4999556;28;20051;-73
2023/10/03 12:04:34;;;;;;;1999.90;999.90;;;14.90;99.90;;;;;;4989720;28;20155;-72
2023/10/03 12:07:01;;;;;;;1999.90;999.90;;;14.80;99.90;;;;;;4972249;28;20125;-71
2023/10/03 12:09:27;;;;;;;1999.90;999.90;;;14.70;99.90;;;;;;4987242;28;20404;-71
2023/10/03 12:11:53;;;;;;;1999.90;999.90;;;14.60;99.90;;;;;;4978509;28;20477;-71
2023/10/03 12:14:18;;;;;;;1999.90;999.90;;;14.50;99.90;;;;;;5007794;27;20094;-71